EST,Max TemperatureF,Mean TemperatureF,Min TemperatureF,Max Dew PointF,MeanDew PointF,Min DewpointF,Max Humidity, Mean Humidity, Min Humidity, Max Sea Level PressureIn, Mean Sea Level PressureIn, Min Sea Level PressureIn, Max VisibilityMiles, Mean VisibilityMiles, Min VisibilityMiles, Max Wind SpeedMPH, Mean Wind SpeedMPH, Max Gust SpeedMPH,PrecipitationIn, CloudCover, Events, WindDirDegrees
2012-1-1,50,44,39,46,42,37,96,86,66,30.09,29.96,29.71,10,10,8,15,9,,0.00,2,Rain,228
2012-1-2,51,44,36,49,33,19,97,66,45,29.75,29.67,29.59,10,8,2,29,16,36,0.10,5,Rain-Snow,251
2012-1-3,37,29,21,25,16,10,65,56,47,29.94,29.81,29.73,10,10,10,25,15,39,0.00,4,,328
2012-1-4,37,26,17,28,13,8,71,63,49,30.10,30.01,29.92,10,10,9,25,16,33,0.00,4,,292
2012-1-5,39,36,32,28,23,18,79,61,50,29.91,29.85,29.76,10,10,4,23,13,30,0.00,5,Rain-Snow,285
2012-1-6,48,40,32,43,32,18,89,72,55,29.98,29.87,29.77,10,10,5,15,10,21,0.00,3,Snow,222
2012-1-7,54,48,42,48,44,39,100,89,77,29.88,29.78,29.71,10,8,3,15,9,,0.00,0,,238
2012-1-8,46,41,35,38,28,22,76,62,47,30.23,30.10,29.90,10,10,10,15,10,21,0.00,0,,298
2012-1-9,39,36,32,28,23,19,70,61,47,30.30,30.21,30.03,10,10,10,16,11,24,0.00,1,,283
2012-1-10,45,42,39,37,31,27,93,69,53,29.99,29.87,29.77,10,10,10,18,10,24,0.00,3,Rain,264
2012-1-11,43,38,33,35,29,24,82,69,47,30.12,30.07,29.95,10,10,10,17,10,,0.00,1,,28
2012-1-12,53,48,42,52,44,36,100,93,76,30.02,29.59,29.35,10,4,0,29,18,43,0.41,8,Fog-Rain,145
2012-1-13,52,43,34,50,38,21,100,84,57,29.70,29.51,29.34,10,7,3,40,12,59,0.15,7,Rain-Snow,170
2012-1-14,36,32,26,25,18,4,67,55,36,29.99,29.82,29.71,10,10,10,30,22,39,0.00,5,,272
2012-1-15,25,20,16,11,6,1,71,58,43,30.46,30.24,30.01,10,10,8,22,15,32,0.00,4,Snow,325
2012-1-16,43,30,17,38,18,9,86,70,56,30.58,30.46,30.21,10,10,6,25,13,33,0.00,4,Rain,277
2012-1-17,48,46,43,46,42,38,100,88,79,30.16,29.86,29.59,9,6,1,22,16,30,0.06,7,Rain,226
2012-1-18,50,39,28,46,28,8,93,63,38,30.12,29.76,29.53,10,8,4,25,19,36,0.00,2,,283
2012-1-19,37,32,26,31,22,11,86,69,51,30.25,30.15,29.96,10,8,1,26,11,34,0.00,6,Snow,48
2012-1-20,39,34,28,34,26,11,100,78,47,30.28,30.05,29.94,10,8,1,26,12,36,0.16,4,Rain-Snow,302
2012-1-21,35,30,25,32,28,14,96,86,58,30.28,30.09,29.97,10,4,0,25,10,36,0.31,7,Fog-Rain-Snow,39
2012-1-22,35,32,30,28,25,22,82,72,65,30.54,30.45,30.25,10,10,10,25,16,32,0.00,8,,58
2012-1-23,50,42,35,49,41,27,100,90,70,30.49,30.20,29.98,10,6,0,20,12,25,0.15,8,Fog-Rain,122
2012-1-24,50,46,41,49,47,39,100,98,86,30.02,29.96,29.93,9,2,0,17,13,22,0.10,6,Fog-Rain,217
2012-1-25,43,40,36,37,29,26,81,66,53,30.19,30.15,30.04,10,10,10,18,11,25,0.00,2,,293
2012-1-26,42,38,33,40,33,28,93,82,73,30.22,30.15,29.99,10,9,2,12,7,,0.01,6,Rain-Snow,352
2012-1-27,51,46,42,52,47,34,100,96,73,29.96,29.59,29.31,10,4,0,23,16,36,0.49,7,Fog-Rain,174
2012-1-28,45,41,37,39,33,27,86,71,49,30.02,29.92,29.68,10,10,7,20,14,30,0.00,1,,251
2012-1-29,44,40,37,39,24,17,82,54,40,30.14,30.07,29.94,10,10,8,24,18,32,0.00,0,,259
2012-1-30,43,38,30,35,22,13,86,54,36,30.31,30.13,29.98,10,10,10,22,14,32,0.01,1,,277
2012-1-31,50,40,30,42,35,18,100,79,56,30.31,30.13,30.05,10,8,2,17,8,25,0.00,3,,213